Time;durP1;ratioP1;P1;durP2;ratioP2;P2;SDS_P1;SDS_P2;PMS_P1;PMS_P2;Temp;Humidity;BMP_temperature;BMP_pressure;BME280_temperature;BME280_humidity;BME280_pressure;Samples;Min_cycle;Max_cycle;Signal;HPM_P1;HPM_P2
2023/02/04 00:00:04;;;;;;;;;;;17.30;63.80;;;;;;5025371;28;1733;-73
2023/02/04 00:02:29;;;;;;;;;;;17.30;63.80;;;;;;5026580;28;1374;-72
2023/02/04 00:04:55;;;;;;;;;;;17.20;63.80;;;;;;5025235;28;1478;-73
2023/02/04 00:07:20;;;;;;;;;;;17.30;63.90;;;;;;5019507;28;1459;-75
2023/02/04 00:09:46;;;;;;;;;;;17.20;63.80;;;;;;5021677;28;1966;-75
2023/02/04 00:12:12;;;;;;;;;;;17.20;63.90;;;;;;5022257;28;1338;-74
2023/02/04 00:14:38;;;;;;;;;;;17.20;63.90;;;;;;5027736;28;1481;-74
2023/02/04 00:17:03;;;;;;;;;;;17.20;63.90;;;;;;5021147;28;1415;-73
2023/02/04 00:19:29;;;;;;;;;;;17.20;63.90;;;;;;5021857;28;1307;-74
2023/02/04 00:21:54;;;;;;;;;;;17.20;63.90;;;;;;5023986;28;1311;-74
2023/02/04 00:24:19;;;;;;;;;;;17.30;64.00;;;;;;5019916;28;1319;-73
2023/02/04 00:26:45;;;;;;;;;;;17.20;64.00;;;;;;5027790;28;1401;-73
2023/02/04 00:29:10;;;;;;;;;;;17.20;64.00;;;;;;5019464;28;1971;-72
2023/02/04 00:31:36;;;;;;;;;;;17.20;64.00;;;;;;5018478;28;900;-72
2023/02/04 00:34:02;;;;;;;;;;;17.20;64.00;;;;;;5016154;28;880;-72
2023/02/04 00:36:27;;;;;;;;;;;17.20;64.00;;;;;;5018640;28;894;-71
2023/02/04 00:38:53;;;;;;;;;;;17.20;64.10;;;;;;5017922;28;1357;-71
2023/02/04 00:41:18;;;;;;;;;;;17.20;64.10;;;;;;5021485;28;884;-72
2023/02/04 00:43:44;;;;;;;;;;;17.20;64.10;;;;;;5017275;28;1601;-72
2023/02/04 00:46:09;;;;;;;;;;;17.20;64.10;;;;;;5020069;28;871;-72
2023/02/04 00:48:34;;;;;;;;;;;17.20;64.10;;;;;;5021111;28;1953;-72
2023/02/04 00:51:00;;;;;;;;;;;17.20;64.10;;;;;;5019162;28;973;-72
2023/02/04 00:53:25;;;;;;;;;;;17.20;64.10;;;;;;5017804;28;843;-72
2023/02/04 00:55:51;;;;;;;;;;;17.20;64.10;;;;;;5034514;28;1284;-72
2023/02/04 00:58:16;;;;;;;;;;;17.20;64.10;;;;;;5021478;28;1256;-71
2023/02/04 01:00:42;;;;;;;;;;;17.20;64.10;;;;;;5021731;28;935;-72
2023/02/04 01:03:07;;;;;;;;;;;17.20;64.00;;;;;;5038474;28;1282;-74
2023/02/04 01:05:33;;;;;;;;;;;17.20;64.00;;;;;;5018571;28;1441;-71
2023/02/04 01:07:58;;;;;;;;;;;17.20;64.00;;;;;;5016275;28;1911;-72
2023/02/04 01:10:24;;;;;;;;;;;17.20;64.00;;;;;;5017460;28;1367;-72
2023/02/04 01:12:49;;;;;;;;;;;17.20;64.00;;;;;;5018394;28;815;-73
2023/02/04 01:15:15;;;;;;;;;;;17.20;64.00;;;;;;5018329;28;839;-73
2023/02/04 01:17:40;;;;;;;;;;;17.20;64.00;;;;;;5016294;28;962;-73
2023/02/04 01:20:06;;;;;;;;;;;17.20;64.00;;;;;;5018002;28;1265;-72
2023/02/04 01:22:32;;;;;;;;;;;17.20;64.00;;;;;;5018924;28;975;-73
2023/02/04 01:24:57;;;;;;;;;;;17.20;64.00;;;;;;5028155;28;1656;-72
2023/02/04 01:27:23;;;;;;;;;;;17.20;64.00;;;;;;5016799;28;887;-74
2023/02/04 01:29:48;;;;;;;;;;;17.20;64.00;;;;;;5017954;28;1898;-74
2023/02/04 01:32:14;;;;;;;;;;;17.20;64.00;;;;;;5020477;28;796;-72
2023/02/04 01:34:39;;;;;;;;;;;17.20;64.00;;;;;;5032840;28;1309;-71
2023/02/04 01:37:05;;;;;;;;;;;17.20;64.00;;;;;;5019326;28;902;-71
2023/02/04 01:39:31;;;;;;;;;;;17.20;64.00;;;;;;5018791;28;1274;-70
2023/02/04 01:41:56;;;;;;;;;;;17.20;64.00;;;;;;5020066;28;883;-73
2023/02/04 01:44:22;;;;;;;;;;;17.20;64.10;;;;;;5031420;28;856;-74
2023/02/04 01:46:47;;;;;;;;;;;17.20;64.00;;;;;;5024727;28;1243;-73
2023/02/04 01:49:13;;;;;;;;;;;17.20;64.00;;;;;;5020023;28;1910;-73
2023/02/04 01:51:38;;;;;;;;;;;17.20;64.00;;;;;;5020493;28;1042;-74
2023/02/04 01:54:04;;;;;;;;;;;17.20;64.00;;;;;;5018973;28;946;-75
2023/02/04 01:56:29;;;;;;;;;;;17.20;64.00;;;;;;5033723;28;900;-75
2023/02/04 01:58:55;;;;;;;;;;;17.20;64.00;;;;;;5032728;28;1370;-75
2023/02/04 02:01:42;;;;;;;;;;;17.20;64.10;;;;;;5017418;28;840;-75
2023/02/04 02:04:08;;;;;;;;;;;17.20;64.00;;;;;;5018152;28;1315;-76
2023/02/04 02:06:33;;;;;;;;;;;17.20;64.00;;;;;;5032103;28;1525;-76
2023/02/04 02:08:59;;;;;;;;;;;17.20;64.00;;;;;;5034871;28;1902;-75
2023/02/04 02:11:25;;;;;;;;;;;17.20;64.10;;;;;;5035746;28;861;-76
2023/02/04 02:13:50;;;;;;;;;;;17.20;64.00;;;;;;5033853;28;891;-73
2023/02/04 02:16:16;;;;;;;;;;;17.20;64.10;;;;;;5015996;28;761;-73
2023/02/04 02:18:41;;;;;;;;;;;17.20;64.10;;;;;;5018005;28;1826;-71
2023/02/04 02:21:07;;;;;;;;;;;17.20;64.10;;;;;;5016926;28;813;-72
2023/02/04 02:23:42;;;;;;;;;;;17.20;64.10;;;;;;5018346;28;948;-72
2023/02/04 02:26:08;;;;;;;;;;;17.20;64.00;;;;;;5016062;28;844;-71
2023/02/04 02:28:33;;;;;;;;;;;17.20;64.10;;;;;;5024716;28;1902;-72
2023/02/04 02:30:58;;;;;;;;;;;17.20;64.10;;;;;;5022644;28;888;-72
2023/02/04 02:33:25;;;;;;;;;;;17.20;64.10;;;;;;5036368;28;883;-72
2023/02/04 02:35:50;;;;;;;;;;;17.20;64.20;;;;;;5022983;28;1397;-72
2023/02/04 02:38:16;;;;;;;;;;;17.20;64.10;;;;;;5022450;28;1277;-71
2023/02/04 02:40:42;;;;;;;;;;;17.20;64.10;;;;;;5036129;28;808;-71
2023/02/04 02:43:08;;;;;;;;;;;17.20;64.10;;;;;;5032747;28;859;-71
2023/02/04 02:45:34;;;;;;;;;;;17.20;64.10;;;;;;5039466;28;839;-72
2023/02/04 02:48:01;;;;;;;;;;;17.20;64.10;;;;;;5023118;28;1902;-74
2023/02/04 02:50:27;;;;;;;;;;;17.20;64.10;;;;;;5022081;28;1275;-74
2023/02/04 02:52:53;;;;;;;;;;;17.20;64.10;;;;;;5037509;28;919;-74
2023/02/04 02:55:19;;;;;;;;;;;17.20;64.10;;;;;;5022691;28;820;-73
2023/02/04 02:57:45;;;;;;;;;;;17.20;64.10;;;;;;5023441;28;911;-72
2023/02/04 03:00:18;;;;;;;;;;;17.20;64.10;;;;;;5034863;28;1260;-73
2023/02/04 03:02:44;;;;;;;;;;;17.20;64.10;;;;;;5036232;28;922;-74
2023/02/04 03:05:09;;;;;;;;;;;17.20;64.10;;;;;;5037638;28;972;-73
2023/02/04 03:07:35;;;;;;;;;;;17.20;64.10;;;;;;5035070;28;822;-73
2023/02/04 03:10:01;;;;;;;;;;;17.20;64.10;;;;;;5036203;28;1969;-74
2023/02/04 03:12:26;;;;;;;;;;;17.20;64.20;;;;;;5020194;28;1042;-74
2023/02/04 03:14:51;;;;;;;;;;;17.20;64.10;;;;;;5020336;28;864;-73
2023/02/04 03:17:17;;;;;;;;;;;17.20;64.20;;;;;;5022597;28;971;-74
2023/02/04 03:19:43;;;;;;;;;;;17.20;64.20;;;;;;5027022;28;1352;-74
2023/02/04 03:22:08;;;;;;;;;;;17.20;64.20;;;;;;5027122;28;1223;-73
2023/02/04 03:24:34;;;;;;;;;;;17.10;64.10;;;;;;5034683;28;887;-73
2023/02/04 03:26:59;;;;;;;;;;;17.10;64.20;;;;;;5038287;28;1429;-74
2023/02/04 03:29:25;;;;;;;;;;;17.20;64.20;;;;;;5023293;28;1965;-74
2023/02/04 03:31:50;;;;;;;;;;;17.10;64.10;;;;;;5023394;28;1267;-74
2023/02/04 03:34:16;;;;;;;;;;;17.20;64.20;;;;;;5024642;28;1434;-74
2023/02/04 03:36:41;;;;;;;;;;;17.20;64.20;;;;;;5022558;28;1411;-74
2023/02/04 03:39:07;;;;;;;;;;;17.20;64.20;;;;;;5021218;28;1357;-73
2023/02/04 03:41:32;;;;;;;;;;;17.20;64.10;;;;;;5035386;28;1235;-73
2023/02/04 03:43:58;;;;;;;;;;;17.20;64.10;;;;;;5030333;28;1349;-72
2023/02/04 03:46:24;;;;;;;;;;;17.20;64.10;;;;;;5022755;28;1304;-72
2023/02/04 03:48:50;;;;;;;;;;;17.20;64.10;;;;;;5023638;28;1902;-73
2023/02/04 03:51:15;;;;;;;;;;;17.20;64.10;;;;;;5021065;28;1397;-70
2023/02/04 03:53:41;;;;;;;;;;;17.20;64.10;;;;;;5024337;28;1264;-73
2023/02/04 03:56:06;;;;;;;;;;;17.20;64.20;;;;;;5023275;28;904;-74
2023/02/04 03:58:32;;;;;;;;;;;17.20;64.10;;;;;;5021748;28;1298;-73
2023/02/04 04:00:57;;;;;;;;;;;17.20;64.10;;;;;;5035231;28;963;-74
2023/02/04 04:03:22;;;;;;;;;;;17.20;64.10;;;;;;5017866;28;1380;-74
2023/02/04 04:05:48;;;;;;;;;;;17.20;64.10;;;;;;5027890;28;1093;-73
2023/02/04 04:08:13;;;;;;;;;;;17.20;64.10;;;;;;5034470;28;1926;-73
2023/02/04 04:10:39;;;;;;;;;;;17.20;64.10;;;;;;5019607;28;1256;-74
2023/02/04 04:13:04;;;;;;;;;;;17.20;64.10;;;;;;5019111;28;718;-72
2023/02/04 04:15:30;;;;;;;;;;;17.20;64.10;;;;;;5020811;28;870;-73
2023/02/04 04:17:55;;;;;;;;;;;17.20;64.10;;;;;;5027449;28;844;-74
2023/02/04 04:20:24;;;;;;;;;;;17.20;64.10;;;;;;5023463;28;1312;-73
2023/02/04 04:22:50;;;;;;;;;;;17.20;64.10;;;;;;5019529;28;865;-73
2023/02/04 04:25:15;;;;;;;;;;;17.10;64.10;;;;;;5019744;28;1021;-73
2023/02/04 04:27:41;;;;;;;;;;;17.20;64.10;;;;;;5033389;28;1142;-74
2023/02/04 04:30:06;;;;;;;;;;;17.20;64.20;;;;;;5016202;28;1902;-74
2023/02/04 04:32:32;;;;;;;;;;;17.10;64.10;;;;;;5020848;28;1002;-73
2023/02/04 04:34:57;;;;;;;;;;;17.20;64.20;;;;;;5022926;28;970;-74
2023/02/04 04:37:23;;;;;;;;;;;17.10;64.10;;;;;;5019563;28;871;-74
2023/02/04 04:39:48;;;;;;;;;;;17.10;64.10;;;;;;5018373;28;1299;-74
2023/02/04 04:42:14;;;;;;;;;;;17.20;64.20;;;;;;5035898;28;1288;-73
2023/02/04 04:44:39;;;;;;;;;;;17.10;64.10;;;;;;5018654;28;818;-74
2023/02/04 04:47:04;;;;;;;;;;;17.20;64.20;;;;;;5019592;28;883;-73
2023/02/04 04:49:30;;;;;;;;;;;17.20;64.20;;;;;;5016595;28;1999;-74
2023/02/04 04:51:55;;;;;;;;;;;17.10;64.20;;;;;;5018731;28;995;-73
2023/02/04 04:54:21;;;;;;;;;;;17.10;64.10;;;;;;5032341;28;913;-73
2023/02/04 04:56:46;;;;;;;;;;;17.10;64.10;;;;;;5019339;28;859;-74
2023/02/04 04:59:12;;;;;;;;;;;17.10;64.10;;;;;;5016543;28;1214;-74
2023/02/04 05:01:37;;;;;;;;;;;17.20;64.20;;;;;;5018431;28;1073;-73
2023/02/04 05:04:03;;;;;;;;;;;17.10;64.10;;;;;;5020435;28;1419;-74
2023/02/04 05:06:28;;;;;;;;;;;17.10;64.10;;;;;;5020438;28;1034;-73
2023/02/04 05:08:54;;;;;;;;;;;17.10;64.10;;;;;;5021008;28;1914;-73
2023/02/04 05:11:19;;;;;;;;;;;17.20;64.20;;;;;;5021516;28;1266;-73
2023/02/04 05:13:45;;;;;;;;;;;17.20;64.10;;;;;;5036177;28;983;-73
2023/02/04 05:16:11;;;;;;;;;;;17.20;64.00;;;;;;5022420;28;999;-74
2023/02/04 05:18:36;;;;;;;;;;;17.20;63.90;;;;;;5016214;28;1505;-74
2023/02/04 05:21:02;;;;;;;;;;;17.30;63.80;;;;;;5019933;28;883;-73
2023/02/04 05:23:27;;;;;;;;;;;17.30;63.70;;;;;;5016320;28;879;-73
2023/02/04 05:25:53;;;;;;;;;;;17.30;63.60;;;;;;5021343;28;805;-73
2023/02/04 05:28:18;;;;;;;;;;;17.40;63.60;;;;;;5017678;28;1997;-74
2023/02/04 05:30:44;;;;;;;;;;;17.40;63.40;;;;;;5020040;28;801;-72
2023/02/04 05:33:09;;;;;;;;;;;17.40;63.30;;;;;;5016799;28;955;-74
2023/02/04 05:35:35;;;;;;;;;;;17.50;63.20;;;;;;5022274;28;1324;-74
2023/02/04 05:38:00;;;;;;;;;;;17.50;63.10;;;;;;5017485;28;895;-73
2023/02/04 05:40:26;;;;;;;;;;;17.50;63.10;;;;;;5015272;28;1307;-73
2023/02/04 05:42:51;;;;;;;;;;;17.50;63.00;;;;;;5016313;28;876;-74
2023/02/04 05:45:17;;;;;;;;;;;17.50;63.00;;;;;;5020659;28;1101;-73
2023/02/04 05:47:43;;;;;;;;;;;17.60;62.90;;;;;;5018259;28;930;-73
2023/02/04 05:50:08;;;;;;;;;;;17.50;62.80;;;;;;5020193;28;1903;-73
2023/02/04 05:52:34;;;;;;;;;;;17.60;62.80;;;;;;5023042;28;1482;-74
2023/02/04 05:54:59;;;;;;;;;;;17.60;62.70;;;;;;5016883;28;883;-73
2023/02/04 05:57:25;;;;;;;;;;;17.60;62.70;;;;;;5020127;28;876;-73
2023/02/04 05:59:50;;;;;;;;;;;17.60;62.60;;;;;;5035415;28;1272;-73
2023/02/04 06:02:16;;;;;;;;;;;17.70;62.60;;;;;;5021342;28;880;-73
2023/02/04 06:04:41;;;;;;;;;;;17.60;62.50;;;;;;5022615;28;1293;-72
2023/02/04 06:07:07;;;;;;;;;;;17.60;62.50;;;;;;5023696;28;840;-73
2023/02/04 06:09:32;;;;;;;;;;;17.60;62.50;;;;;;5019538;28;1899;-75
2023/02/04 06:11:58;;;;;;;;;;;17.70;62.40;;;;;;5024477;28;841;-73
2023/02/04 06:14:23;;;;;;;;;;;17.60;62.40;;;;;;5022272;28;931;-74
2023/02/04 06:16:48;;;;;;;;;;;17.70;62.40;;;;;;5005622;28;874;-74
2023/02/04 06:19:14;;;;;;;;;;;17.70;62.40;;;;;;5021348;28;1273;-73
2023/02/04 06:21:39;;;;;;;;;;;17.70;62.40;;;;;;5020866;28;884;-73
2023/02/04 06:24:05;;;;;;;;;;;17.70;62.30;;;;;;5023425;28;1002;-74
2023/02/04 06:26:30;;;;;;;;;;;17.70;62.30;;;;;;5020833;28;806;-73
2023/02/04 06:28:56;;;;;;;;;;;17.70;62.30;;;;;;5022825;28;1971;-73
2023/02/04 06:31:21;;;;;;;;;;;17.70;62.30;;;;;;5024883;28;935;-73
2023/02/04 06:33:47;;;;;;;;;;;17.70;62.30;;;;;;5020290;28;859;-73
2023/02/04 06:36:12;;;;;;;;;;;17.70;62.30;;;;;;5022495;28;1021;-73
2023/02/04 06:38:38;;;;;;;;;;;17.70;62.20;;;;;;5023504;28;1349;-74
2023/02/04 06:41:03;;;;;;;;;;;17.70;62.20;;;;;;5019566;28;879;-73
2023/02/04 06:43:29;;;;;;;;;;;17.70;62.20;;;;;;5038833;28;879;-73
2023/02/04 06:45:54;;;;;;;;;;;17.70;62.20;;;;;;5022837;28;936;-74
2023/02/04 06:48:20;;;;;;;;;;;17.70;62.20;;;;;;5020936;28;1902;-73
2023/02/04 06:50:45;;;;;;;;;;;17.70;62.20;;;;;;5022078;28;903;-73
2023/02/04 06:53:11;;;;;;;;;;;17.70;62.20;;;;;;5030136;28;1329;-73
2023/02/04 06:55:36;;;;;;;;;;;17.70;62.20;;;;;;5021234;28;789;-73
2023/02/04 06:58:01;;;;;;;;;;;17.70;62.20;;;;;;5022174;28;871;-73
2023/02/04 07:00:27;;;;;;;;;;;17.70;62.20;;;;;;5021190;28;1276;-73
2023/02/04 07:02:53;;;;;;;;;;;17.70;62.20;;;;;;5037717;28;986;-73
2023/02/04 07:05:18;;;;;;;;;;;17.70;62.20;;;;;;5023103;28;1255;-73
2023/02/04 07:07:43;;;;;;;;;;;17.70;62.20;;;;;;5020821;28;860;-73
2023/02/04 07:10:09;;;;;;;;;;;17.70;62.20;;;;;;5016977;28;1965;-72
2023/02/04 07:12:34;;;;;;;;;;;17.70;62.20;;;;;;5022299;28;1960;-71
2023/02/04 07:15:00;;;;;;;;;;;17.70;63.00;;;;;;5033762;28;1011;-72
2023/02/04 07:17:25;;;;;;;;;;;17.70;62.20;;;;;;5037848;28;855;-71
2023/02/04 07:19:51;;;;;;;;;;;17.70;62.20;;;;;;5021256;28;1300;-70
2023/02/04 07:22:17;;;;;;;;;;;17.70;62.20;;;;;;5020228;28;824;-71
2023/02/04 07:24:42;;;;;;;;;;;17.70;62.30;;;;;;5023778;28;919;-70
2023/02/04 07:27:08;;;;;;;;;;;17.70;62.20;;;;;;5019903;28;955;-69
2023/02/04 07:29:33;;;;;;;;;;;17.70;62.20;;;;;;5017105;28;1959;-70
2023/02/04 07:31:59;;;;;;;;;;;17.70;62.20;;;;;;5019550;28;935;-70
2023/02/04 07:34:24;;;;;;;;;;;17.70;62.30;;;;;;5022442;28;1292;-69
2023/02/04 07:36:50;;;;;;;;;;;17.70;62.20;;;;;;5019617;28;836;-71
2023/02/04 07:39:15;;;;;;;;;;;17.70;62.30;;;;;;5021586;28;1273;-70
2023/02/04 07:41:41;;;;;;;;;;;17.70;62.30;;;;;;5019639;28;940;-69
2023/02/04 07:44:06;;;;;;;;;;;17.70;62.30;;;;;;5017452;28;956;-70
2023/02/04 07:46:32;;;;;;;;;;;17.70;62.30;;;;;;5020656;28;817;-70
2023/02/04 07:48:57;;;;;;;;;;;17.70;62.30;;;;;;5027410;28;1910;-70
2023/02/04 07:51:23;;;;;;;;;;;17.70;62.30;;;;;;5018346;28;805;-71
2023/02/04 07:53:48;;;;;;;;;;;17.70;62.30;;;;;;5020519;28;1018;-71
2023/02/04 07:56:14;;;;;;;;;;;17.70;62.40;;;;;;5023887;28;852;-71
2023/02/04 07:58:39;;;;;;;;;;;17.60;62.30;;;;;;5011035;28;4111;-71
2023/02/04 08:01:04;;;;;;;;;;;17.70;62.40;;;;;;5026449;28;1565;-70
2023/02/04 08:03:30;;;;;;;;;;;17.70;62.40;;;;;;5013070;28;4438;-71
2023/02/04 08:05:55;;;;;;;;;;;17.70;62.40;;;;;;5036033;28;1254;-70
2023/02/04 08:08:21;;;;;;;;;;;17.70;62.40;;;;;;5019592;28;1906;-71
2023/02/04 08:10:46;;;;;;;;;;;17.60;62.40;;;;;;5023012;28;1264;-70
2023/02/04 08:13:12;;;;;;;;;;;17.60;62.40;;;;;;5021167;28;899;-70
2023/02/04 08:15:37;;;;;;;;;;;17.70;62.40;;;;;;5017837;28;977;-71
2023/02/04 08:18:03;;;;;;;;;;;17.60;62.40;;;;;;5006747;28;884;-71
2023/02/04 08:20:28;;;;;;;;;;;17.70;62.40;;;;;;5019408;28;1209;-71
2023/02/04 08:22:54;;;;;;;;;;;17.70;62.40;;;;;;5022876;28;909;-71
2023/02/04 08:25:19;;;;;;;;;;;17.60;62.40;;;;;;5020476;28;840;-72
2023/02/04 08:27:45;;;;;;;;;;;17.70;62.40;;;;;;5019563;28;887;-71
2023/02/04 08:30:10;;;;;;;;;;;17.60;62.30;;;;;;5018488;28;1898;-71
2023/02/04 08:32:36;;;;;;;;;;;17.70;62.40;;;;;;5027919;28;868;-70
2023/02/04 08:35:01;;;;;;;;;;;17.60;62.30;;;;;;5023250;28;1489;-71
2023/02/04 08:37:27;;;;;;;;;;;17.70;62.40;;;;;;5021301;28;857;-71
2023/02/04 08:39:52;;;;;;;;;;;17.60;62.30;;;;;;5035615;28;1259;-70
2023/02/04 08:42:18;;;;;;;;;;;17.70;62.40;;;;;;5018830;28;947;-71
2023/02/04 08:44:43;;;;;;;;;;;17.60;62.30;;;;;;5020026;28;868;-71
2023/02/04 08:47:09;;;;;;;;;;;17.70;62.30;;;;;;5019640;28;1030;-71
2023/02/04 08:49:35;;;;;;;;;;;17.70;62.30;;;;;;5033117;28;1906;-72
2023/02/04 08:52:01;;;;;;;;;;;17.70;62.30;;;;;;5034017;28;851;-71
2023/02/04 08:54:27;;;;;;;;;;;17.70;62.30;;;;;;5018563;28;883;-71
2023/02/04 08:56:53;;;;;;;;;;;17.70;62.30;;;;;;5034832;28;838;-71
2023/02/04 08:59:20;;;;;;;;;;;17.70;62.30;;;;;;5019886;28;1328;-71
2023/02/04 09:01:48;;;;;;;;;;;17.70;62.20;;;;;;5019479;28;907;-70
2023/02/04 09:04:13;;;;;;;;;;;17.70;62.20;;;;;;5018058;28;1342;-71
2023/02/04 09:06:39;;;;;;;;;;;17.70;62.20;;;;;;5018663;28;834;-70
2023/02/04 09:09:04;;;;;;;;;;;17.70;62.20;;;;;;5014547;28;1952;-71
2023/02/04 09:11:30;;;;;;;;;;;17.80;62.30;;;;;;5018135;28;1076;-71
2023/02/04 09:13:56;;;;;;;;;;;17.70;62.20;;;;;;5018216;28;855;-71
2023/02/04 09:16:21;;;;;;;;;;;17.70;62.20;;;;;;5019389;28;895;-72
2023/02/04 09:18:47;;;;;;;;;;;17.70;62.20;;;;;;5019267;28;1414;-72
2023/02/04 09:21:12;;;;;;;;;;;17.70;62.20;;;;;;5034502;28;943;-71
2023/02/04 09:23:38;;;;;;;;;;;17.70;62.10;;;;;;5020507;28;864;-71
2023/02/04 09:26:05;;;;;;;;;;;17.80;62.20;;;;;;5016645;28;883;-71
2023/02/04 09:28:31;;;;;;;;;;;17.80;62.20;;;;;;5015814;28;1902;-71
2023/02/04 09:30:56;;;;;;;;;;;17.80;62.20;;;;;;5021941;28;972;-71
2023/02/04 09:33:22;;;;;;;;;;;17.80;62.20;;;;;;5020383;28;915;-71
2023/02/04 09:35:47;;;;;;;;;;;17.80;62.20;;;;;;5018982;28;1363;-71
2023/02/04 09:38:13;;;;;;;;;;;17.80;62.20;;;;;;5021959;28;1339;-71
2023/02/04 09:40:43;;;;;;;;;;;17.70;62.10;;;;;;5033261;28;1208;-71
2023/02/04 09:43:10;;;;;;;;;;;17.70;62.10;;;;;;5024824;28;819;-71
2023/02/04 09:45:36;;;;;;;;;;;17.80;62.10;;;;;;5027609;28;945;-71
2023/02/04 09:48:02;;;;;;;;;;;17.70;62.10;;;;;;5023195;28;1997;-71
2023/02/04 09:50:28;;;;;;;;;;;17.70;62.10;;;;;;5040248;28;1289;-71
2023/02/04 09:52:54;;;;;;;;;;;17.70;62.10;;;;;;5026970;28;982;-71
2023/02/04 09:55:20;;;;;;;;;;;17.70;62.10;;;;;;5041629;28;966;-71
2023/02/04 09:57:46;;;;;;;;;;;17.80;62.10;;;;;;5040696;28;880;-72
2023/02/04 10:00:15;;;;;;;;;;;17.80;62.20;;;;;;5024296;28;1251;-71
2023/02/04 10:02:40;;;;;;;;;;;17.80;62.10;;;;;;5023250;28;1142;-71
2023/02/04 10:05:08;;;;;;;;;;;17.70;62.10;;;;;;5025089;28;1356;-71
2023/02/04 10:07:34;;;;;;;;;;;17.80;62.10;;;;;;5040747;28;848;-71
2023/02/04 10:09:59;;;;;;;;;;;17.70;62.10;;;;;;5023752;28;1987;-71
2023/02/04 10:12:26;;;;;;;;;;;17.80;62.10;;;;;;5024148;28;879;-71
2023/02/04 10:14:51;;;;;;;;;;;17.80;62.10;;;;;;5025650;28;920;-71
2023/02/04 10:17:18;;;;;;;;;;;17.80;62.10;;;;;;5044363;28;899;-71
2023/02/04 10:19:44;;;;;;;;;;;17.70;62.10;;;;;;5025723;28;1273;-71
2023/02/04 10:22:10;;;;;;;;;;;17.80;62.20;;;;;;5037008;28;979;-71
2023/02/04 10:24:37;;;;;;;;;;;17.80;62.10;;;;;;5038290;28;837;-72
2023/02/04 10:27:07;;;;;;;;;;;17.80;62.10;;;;;;5023614;28;910;-72
2023/02/04 10:29:32;;;;;;;;;;;17.80;62.20;;;;;;5023074;28;1985;-71
2023/02/04 10:31:57;;;;;;;;;;;17.70;62.10;;;;;;5036960;28;895;-71
2023/02/04 10:34:30;;;;;;;;;;;17.70;62.10;;;;;;5033741;28;1315;-71
2023/02/04 10:36:56;;;;;;;;;;;17.70;62.10;;;;;;5025693;28;911;-70
2023/02/04 10:39:25;;;;;;;;;;;17.80;62.20;;;;;;5024888;28;1264;-71
2023/02/04 10:41:52;;;;;;;;;;;17.80;62.20;;;;;;5026688;28;848;-71
2023/02/04 10:44:23;;;;;;;;;;;17.80;62.30;;;;;;5023168;28;797;-71
2023/02/04 10:46:49;;;;;;;;;;;17.80;62.20;;;;;;5020730;28;888;-72
2023/02/04 10:49:21;;;;;;;;;;;17.80;62.30;;;;;;5020992;28;1910;-70
2023/02/04 10:51:47;;;;;;;;;;;17.70;62.20;;;;;;5040506;28;1307;-71
2023/02/04 10:54:31;;;;;;;;;;;17.70;62.20;;;;;;5028370;28;889;-71
2023/02/04 10:57:03;;;;;;;;;;;17.70;62.20;;;;;;5020446;28;828;-71
2023/02/04 10:59:28;;;;;;;;;;;17.70;62.20;;;;;;5020600;28;2498;-71
2023/02/04 11:01:54;;;;;;;;;;;17.70;62.20;;;;;;5022654;28;2008;-71
2023/02/04 11:04:20;;;;;;;;;;;17.70;62.30;;;;;;5037312;28;1283;-71
2023/02/04 11:06:45;;;;;;;;;;;17.70;62.30;;;;;;5022590;28;1220;-71
2023/02/04 11:09:12;;;;;;;;;;;17.70;62.30;;;;;;5020877;28;1993;-71
2023/02/04 11:11:37;;;;;;;;;;;17.70;62.30;;;;;;5036596;28;927;-71
2023/02/04 11:14:03;;;;;;;;;;;17.70;62.30;;;;;;5020677;28;942;-71
2023/02/04 11:16:30;;;;;;;;;;;17.70;62.30;;;;;;5019108;28;1062;-71
2023/02/04 11:18:57;;;;;;;;;;;17.70;62.30;;;;;;5021264;28;1289;-71
2023/02/04 11:21:22;;;;;;;;;;;17.70;62.30;;;;;;5036640;28;894;-71
2023/02/04 11:23:48;;;;;;;;;;;17.70;62.30;;;;;;5020365;28;901;-71
2023/02/04 11:26:21;;;;;;;;;;;17.70;62.30;;;;;;5024244;28;907;-71
2023/02/04 11:28:54;;;;;;;;;;;17.70;62.30;;;;;;5012575;28;1914;-71
2023/02/04 11:31:19;;;;;;;;;;;17.70;62.40;;;;;;5019011;28;2116;-71
2023/02/04 11:33:45;;;;;;;;;;;17.70;62.30;;;;;;5021028;28;1657;-71
2023/02/04 11:36:12;;;;;;;;;;;17.70;62.40;;;;;;5023330;28;1429;-71
2023/02/04 11:38:37;;;;;;;;;;;17.70;62.30;;;;;;5021958;28;1216;-72
2023/02/04 11:41:03;;;;;;;;;;;17.70;62.30;;;;;;5021211;28;905;-70
2023/02/04 11:43:31;;;;;;;;;;;17.70;62.30;;;;;;5035255;28;958;-71
2023/02/04 11:46:11;;;;;;;;;;;17.70;62.30;;;;;;5019780;28;894;-70
2023/02/04 11:48:37;;;;;;;;;;;17.70;62.30;;;;;;5036168;28;1914;-71
2023/02/04 11:51:08;;;;;;;;;;;17.70;62.40;;;;;;5029061;28;1237;-71
2023/02/04 11:53:33;;;;;;;;;;;17.70;62.30;;;;;;5035052;28;1449;-71
2023/02/04 11:55:59;;;;;;;;;;;17.70;62.30;;;;;;5019428;28;868;-71
2023/02/04 11:58:25;;;;;;;;;;;17.70;62.30;;;;;;5021852;28;1326;-71
2023/02/04 12:00:50;;;;;;;;;;;17.70;62.30;;;;;;5020897;28;773;-71
2023/02/04 12:03:23;;;;;;;;;;;17.70;62.30;;;;;;5020895;28;883;-71
2023/02/04 12:05:49;;;;;;;;;;;17.70;62.30;;;;;;5036619;28;868;-71
2023/02/04 12:08:20;;;;;;;;;;;17.70;62.30;;;;;;5020216;28;1910;-71
2023/02/04 12:10:46;;;;;;;;;;;17.70;62.30;;;;;;5019851;28;1290;-71
2023/02/04 12:13:15;;;;;;;;;;;17.70;62.30;;;;;;5023853;28;887;-71
2023/02/04 12:15:40;;;;;;;;;;;17.70;62.30;;;;;;5031006;28;1380;-72
2023/02/04 12:18:11;;;;;;;;;;;17.70;62.30;;;;;;5020423;28;799;-71
2023/02/04 12:20:37;;;;;;;;;;;17.70;62.30;;;;;;5020344;28;1330;-71
2023/02/04 12:23:03;;;;;;;;;;;17.70;62.30;;;;;;5036997;28;907;-71
2023/02/04 12:25:28;;;;;;;;;;;17.70;62.30;;;;;;5012211;28;1193;-72
2023/02/04 12:27:54;;;;;;;;;;;17.70;62.30;;;;;;5034217;28;1253;-71
2023/02/04 12:30:20;;;;;;;;;;;17.70;62.30;;;;;;5020227;28;1969;-72
2023/02/04 12:32:46;;;;;;;;;;;17.70;62.30;;;;;;5031704;28;1282;-72
2023/02/04 12:35:11;;;;;;;;;;;17.70;62.20;;;;;;5016778;28;1303;-70
2023/02/04 12:37:37;;;;;;;;;;;17.70;62.30;;;;;;5024974;28;1291;-71
2023/02/04 12:40:02;;;;;;;;;;;17.70;62.20;;;;;;5020246;28;1304;-71
2023/02/04 12:42:28;;;;;;;;;;;17.70;62.20;;;;;;5018091;28;1485;-71
2023/02/04 12:44:53;;;;;;;;;;;17.70;62.20;;;;;;5018019;28;886;-71
2023/02/04 12:47:18;;;;;;;;;;;17.70;62.30;;;;;;5019624;28;950;-71
2023/02/04 12:49:45;;;;;;;;;;;17.70;62.20;;;;;;5018731;28;1965;-71
2023/02/04 12:52:10;;;;;;;;;;;17.70;62.20;;;;;;5022043;28;860;-71
2023/02/04 12:54:36;;;;;;;;;;;17.80;62.30;;;;;;5020794;28;1022;-71
2023/02/04 12:57:02;;;;;;;;;;;17.80;62.30;;;;;;5021675;28;859;-71
2023/02/04 12:59:27;;;;;;;;;;;17.70;62.20;;;;;;5021019;28;1344;-71
2023/02/04 13:01:53;;;;;;;;;;;17.70;62.30;;;;;;5033290;28;864;-71
2023/02/04 13:04:18;;;;;;;;;;;17.70;62.20;;;;;;5019491;28;1257;-71
2023/02/04 13:06:43;;;;;;;;;;;17.70;62.30;;;;;;5033141;28;908;-70
2023/02/04 13:09:09;;;;;;;;;;;17.70;62.20;;;;;;5020980;28;1890;-71
2023/02/04 13:11:34;;;;;;;;;;;17.70;62.30;;;;;;5017713;28;813;-71
2023/02/04 13:14:00;;;;;;;;;;;17.70;62.30;;;;;;5017701;28;1840;-71
2023/02/04 13:16:25;;;;;;;;;;;17.70;62.30;;;;;;5016175;28;2290;-71
2023/02/04 13:18:51;;;;;;;;;;;17.70;62.30;;;;;;5018465;28;1386;-71
2023/02/04 13:21:16;;;;;;;;;;;17.70;62.30;;;;;;5018783;28;1573;-71
2023/02/04 13:23:42;;;;;;;;;;;17.70;62.30;;;;;;5033253;28;863;-71
2023/02/04 13:26:08;;;;;;;;;;;17.70;62.30;;;;;;5018116;28;1062;-71
2023/02/04 13:28:34;;;;;;;;;;;17.70;62.30;;;;;;5018735;28;1964;-71
2023/02/04 13:30:59;;;;;;;;;;;17.70;62.30;;;;;;5015374;28;939;-70
2023/02/04 13:33:25;;;;;;;;;;;17.70;62.30;;;;;;5033562;28;891;-71
2023/02/04 13:35:50;;;;;;;;;;;17.70;62.40;;;;;;5033302;28;1305;-70
2023/02/04 13:38:16;;;;;;;;;;;17.70;62.40;;;;;;5016409;28;1224;-71
2023/02/04 13:40:41;;;;;;;;;;;17.70;62.40;;;;;;5016038;28;1073;-71
2023/02/04 13:43:07;;;;;;;;;;;17.70;62.40;;;;;;5017244;28;904;-70
2023/02/04 13:45:32;;;;;;;;;;;17.70;62.40;;;;;;5033365;28;1054;-71
2023/02/04 13:47:58;;;;;;;;;;;17.70;62.50;;;;;;5018487;28;935;-69
2023/02/04 13:50:23;;;;;;;;;;;17.70;62.40;;;;;;5019959;28;2126;-70
2023/02/04 13:52:49;;;;;;;;;;;17.70;62.50;;;;;;5017182;28;1360;-69
2023/02/04 13:55:14;;;;;;;;;;;17.60;62.50;;;;;;5035291;28;1408;-72
2023/02/04 13:57:40;;;;;;;;;;;17.70;62.60;;;;;;5018039;28;1015;-72
2023/02/04 14:00:05;;;;;;;;;;;17.70;62.60;;;;;;5015886;28;1393;-71
2023/02/04 14:02:31;;;;;;;;;;;17.70;62.60;;;;;;5019254;28;872;-72
2023/02/04 14:04:57;;;;;;;;;;;17.70;62.60;;;;;;5016294;28;1344;-71
2023/02/04 14:07:23;;;;;;;;;;;17.60;62.60;;;;;;5019133;28;900;-72
2023/02/04 14:09:48;;;;;;;;;;;17.60;62.70;;;;;;5021209;28;1961;-72
2023/02/04 14:12:14;;;;;;;;;;;17.60;62.70;;;;;;5021708;28;911;-72
2023/02/04 14:14:39;;;;;;;;;;;17.60;62.70;;;;;;5003536;28;1345;-72
2023/02/04 14:17:05;;;;;;;;;;;17.60;62.70;;;;;;5033934;28;1375;-73
2023/02/04 14:19:30;;;;;;;;;;;17.60;62.80;;;;;;5018427;28;1367;-72
2023/02/04 14:21:57;;;;;;;;;;;17.60;62.80;;;;;;5033906;28;860;-73
2023/02/04 14:24:23;;;;;;;;;;;17.60;62.90;;;;;;5035513;28;1218;-68
2023/02/04 14:26:49;;;;;;;;;;;17.60;62.80;;;;;;5022828;28;808;-69